KENV/ENV METAR and TAF weather

Enter ICAO airport designator
Station Type Date Time Source
KENV METAR 2021/05/17 21:56 UTC NOAA

KENV 172156Z AUTO 16010KT 110V180 10SM CLR 25/04 A2990 RMK AO2 SLP092 T02500039


Station Type Date Time Source
KENV Decoded METAR 2021/05/17 21:56 UTC NOAA

Wendover / Air Force Auxillary Field, UT, United States (KENV) 40-44N 114-02W 1292M
May 17, 2021 - 05:56 PM EDT / 2021.05.17 2156 UTC
Wind: from the SSE (160 degrees) at 12 MPH (10 KT) (direction variable):0
Visibility: 10 mile(s):0
Sky conditions: clear
Temperature: 77.0 F (25.0 C)
Dew Point: 39.0 F (3.9 C)
Relative Humidity: 25%
Pressure (altimeter): 29.9 in. Hg (1012 hPa)
ob: KENV 172156Z AUTO 16010KT 110V180 10SM CLR 25/04 A2990 RMK AO2 SLP092 T02500039
cycle: 22

Station Type Date Time Source
KENV TAF 2021/05/17 18:42 UTC NOAA

TAF KENV 171741Z 1718/1818 12009KT P6SM FEW100 SCT200
FM180400 30008KT P6SM FEW100 SCT150

Example: see airport list